createdAt,value
2023-02-12T00:01:30.436Z,17.10
2023-02-12T00:03:58.596Z,18.37
2023-02-12T00:06:27.341Z,18.10
2023-02-12T00:08:57.207Z,19.03
2023-02-12T00:11:27.585Z,18.87
2023-02-12T00:13:58.064Z,18.10
2023-02-12T00:16:28.568Z,19.00
2023-02-12T00:18:58.929Z,18.10
2023-02-12T00:21:27.911Z,17.97
2023-02-12T00:23:56.066Z,17.17
2023-02-12T00:26:24.754Z,18.13
2023-02-12T00:28:53.942Z,17.77
2023-02-12T00:31:25.683Z,18.73
2023-02-12T00:33:54.732Z,17.37
2023-02-12T00:36:24.940Z,17.33
2023-02-12T00:38:54.859Z,18.00
2023-02-12T00:41:23.911Z,18.23
2023-02-12T00:43:52.300Z,18.33
2023-02-12T00:46:21.437Z,19.10
2023-02-12T00:48:51.390Z,17.97
2023-02-12T00:51:19.424Z,19.60
2023-02-12T00:53:47.987Z,18.13
2023-02-12T00:56:16.337Z,16.90
2023-02-12T00:58:44.894Z,17.83
2023-02-12T01:01:13.039Z,17.90
2023-02-12T01:03:41.596Z,18.13
2023-02-12T01:06:11.088Z,18.57
2023-02-12T01:08:39.709Z,18.27
2023-02-12T01:11:08.525Z,18.23
2023-02-12T01:13:37.288Z,19.63
2023-02-12T01:16:08.732Z,19.03
2023-02-12T01:18:38.072Z,18.67
2023-02-12T01:21:12.466Z,18.80
2023-02-12T01:23:41.405Z,20.30
2023-02-12T01:26:10.924Z,20.40
2023-02-12T01:28:39.752Z,20.13
2023-02-12T01:31:13.050Z,19.77
2023-02-12T01:33:42.238Z,21.10
2023-02-12T01:36:12.730Z,20.40
2023-02-12T01:38:41.271Z,19.37
2023-02-12T01:41:11.629Z,21.97
2023-02-12T01:43:40.466Z,20.30
2023-02-12T01:46:11.308Z,21.60
2023-02-12T01:48:43.095Z,20.87
2023-02-12T01:51:17.843Z,21.10
2023-02-12T01:53:50.904Z,21.73
2023-02-12T01:56:19.431Z,21.50
2023-02-12T01:58:50.055Z,21.27
2023-02-12T02:01:23.546Z,20.97
2023-02-12T02:03:56.310Z,21.53
2023-02-12T02:06:29.049Z,20.93
2023-02-12T02:08:58.399Z,22.67
2023-02-12T02:11:43.674Z,20.87
2023-02-12T02:14:29.203Z,20.07
2023-02-12T02:17:26.096Z,22.53
2023-02-12T02:20:26.013Z,21.73
2023-02-12T02:23:11.147Z,21.40
2023-02-12T02:26:06.053Z,21.17
2023-02-12T02:29:00.775Z,20.40
2023-02-12T02:31:35.773Z,21.07
2023-02-12T02:34:11.058Z,21.77
2023-02-12T02:36:59.236Z,21.57
2023-02-12T02:39:36.360Z,22.87
2023-02-12T02:42:10.895Z,21.07
2023-02-12T02:44:45.097Z,21.70
2023-02-12T02:47:16.233Z,21.57
2023-02-12T02:49:49.674Z,22.07
2023-02-12T02:52:22.374Z,21.03
2023-02-12T02:54:54.885Z,21.47
2023-02-12T02:57:27.386Z,20.80
2023-02-12T02:59:59.575Z,21.77
2023-02-12T03:02:33.508Z,21.43
2023-02-12T03:05:06.224Z,20.90
2023-02-12T03:07:39.956Z,19.60
2023-02-12T03:10:15.571Z,20.50
2023-02-12T03:12:50.642Z,19.23
2023-02-12T03:15:25.787Z,21.27
2023-02-12T03:17:55.987Z,19.93
2023-02-12T03:20:28.086Z,20.67
2023-02-12T03:23:02.714Z,20.83
2023-02-12T03:25:36.509Z,20.63
2023-02-12T03:28:10.891Z,19.57
2023-02-12T03:30:46.135Z,19.00
2023-02-12T03:33:30.321Z,20.40
2023-02-12T03:36:04.004Z,21.23
2023-02-12T03:38:38.803Z,19.37
2023-02-12T03:41:13.358Z,21.23
2023-02-12T03:43:50.391Z,19.90
2023-02-12T03:46:24.682Z,22.13
2023-02-12T03:49:02.499Z,19.90
2023-02-12T03:51:36.443Z,21.10
2023-02-12T03:54:06.560Z,19.80
2023-02-12T03:56:39.617Z,20.83
2023-02-12T03:59:08.402Z,21.33
2023-02-12T04:01:36.901Z,20.83
2023-02-12T04:04:09.156Z,21.17
2023-02-12T04:06:37.340Z,20.97
2023-02-12T04:09:10.665Z,18.77
2023-02-12T04:11:55.106Z,21.27
2023-02-12T04:14:30.304Z,20.53
2023-02-12T04:17:05.229Z,21.67
2023-02-12T04:19:42.825Z,20.40
2023-02-12T04:22:21.342Z,21.80
2023-02-12T04:25:00.606Z,21.43
2023-02-12T04:27:37.606Z,20.80
2023-02-12T04:30:11.981Z,21.10
2023-02-12T04:32:46.755Z,20.63
2023-02-12T04:35:21.705Z,20.80
2023-02-12T04:37:53.787Z,19.57
2023-02-12T04:40:24.243Z,19.90
2023-02-12T04:42:54.859Z,19.53
2023-02-12T04:45:27.664Z,20.87
2023-02-12T04:47:59.677Z,20.50
2023-02-12T04:50:44.900Z,19.50
2023-02-12T04:53:13.628Z,20.43
2023-02-12T04:55:42.073Z,20.67
2023-02-12T04:58:12.978Z,19.93
2023-02-12T05:00:42.055Z,21.57
2023-02-12T05:03:11.248Z,20.50
2023-02-12T05:05:40.916Z,19.70
2023-02-12T05:08:08.989Z,19.37
2023-02-12T05:10:38.415Z,21.50
2023-02-12T05:13:07.077Z,19.07
2023-02-12T05:18:18.966Z,20.30
2023-02-12T05:20:59.069Z,19.43
2023-02-12T05:23:28.479Z,21.43
2023-02-12T05:26:00.810Z,19.33
2023-02-12T05:28:29.909Z,20.47
2023-02-12T05:31:02.581Z,19.57
2023-02-12T05:33:30.849Z,21.67
2023-02-12T05:36:07.145Z,19.73
2023-02-12T05:38:36.016Z,19.73
2023-02-12T05:41:05.873Z,19.73
2023-02-12T05:43:34.578Z,19.97
2023-02-12T05:46:05.208Z,19.30
2023-02-12T05:48:34.897Z,20.27
2023-02-12T05:51:07.291Z,22.60
2023-02-12T05:53:36.938Z,20.80
2023-02-12T05:56:14.007Z,20.87
2023-02-12T05:58:46.236Z,19.43
2023-02-12T06:01:17.119Z,20.47
2023-02-12T06:03:59.802Z,20.03
2023-02-12T06:06:31.287Z,18.87
2023-02-12T06:09:08.237Z,19.90
2023-02-12T06:11:36.477Z,22.00
2023-02-12T06:14:05.633Z,21.17
2023-02-12T06:16:36.183Z,20.93
2023-02-12T06:19:06.092Z,20.37
2023-02-12T06:21:41.812Z,21.57
2023-02-12T06:24:11.151Z,21.90
2023-02-12T06:26:40.669Z,23.37
2023-02-12T06:29:10.380Z,22.63
2023-02-12T06:31:39.721Z,22.07
2023-02-12T06:34:10.819Z,20.93
2023-02-12T06:36:43.951Z,22.07
2023-02-12T06:39:12.987Z,21.40
2023-02-12T06:41:42.322Z,21.97
2023-02-12T06:44:12.907Z,22.23
2023-02-12T06:46:41.148Z,22.40
2023-02-12T06:49:15.831Z,21.23
2023-02-12T06:51:47.812Z,20.83
2023-02-12T06:54:33.390Z,21.63
2023-02-12T06:57:04.517Z,21.80
2023-02-12T07:02:22.145Z,21.67
2023-02-12T07:04:55.723Z,21.37
2023-02-12T07:07:26.676Z,21.53
2023-02-12T07:09:56.624Z,21.53
2023-02-12T07:15:14.766Z,21.30
2023-02-12T07:17:43.615Z,22.37
2023-02-12T07:20:15.735Z,21.73
2023-02-12T07:22:45.406Z,22.00
2023-02-12T07:25:17.774Z,29.80
2023-02-12T07:27:47.125Z,32.00
2023-02-12T07:30:19.801Z,32.43
2023-02-12T07:32:56.222Z,31.83
2023-02-12T07:35:25.463Z,27.73
2023-02-12T07:37:58.308Z,32.92
2023-02-12T07:40:26.517Z,25.27
2023-02-12T07:42:56.810Z,25.43
2023-02-12T07:45:26.188Z,23.57
2023-02-12T07:47:56.175Z,24.03
2023-02-12T07:50:24.750Z,23.77
2023-02-12T07:52:55.565Z,21.20
2023-02-12T07:55:23.790Z,22.27
2023-02-12T07:57:53.466Z,21.83
2023-02-12T08:00:42.172Z,23.73
2023-02-12T08:03:10.502Z,23.37
2023-02-12T08:05:38.944Z,24.90
2023-02-12T08:08:16.628Z,27.17
2023-02-12T08:10:45.851Z,28.57
2023-02-12T08:13:13.956Z,31.60
2023-02-12T08:15:42.113Z,35.97
2023-02-12T08:18:10.376Z,44.67
2023-02-12T08:20:38.714Z,34.50
2023-02-12T08:23:08.839Z,30.07
2023-02-12T08:25:37.993Z,27.83
2023-02-12T08:33:23.442Z,24.07
2023-02-12T08:35:51.499Z,23.53
2023-02-12T08:38:21.450Z,23.47
2023-02-12T08:40:49.591Z,25.00
2023-02-12T08:43:17.701Z,23.70
2023-02-12T08:45:46.260Z,23.20
2023-02-12T08:48:14.363Z,24.47
2023-02-12T08:50:42.913Z,23.67
2023-02-12T08:53:11.379Z,23.40
2023-02-12T08:55:41.338Z,23.23
2023-02-12T08:58:09.453Z,24.03
2023-02-12T09:00:40.405Z,22.73
2023-02-12T09:03:08.551Z,21.67
2023-02-12T09:05:41.076Z,23.37
2023-02-12T09:08:09.782Z,22.87
2023-02-12T09:10:42.771Z,21.93
2023-02-12T09:13:12.481Z,21.67
2023-02-12T09:15:44.870Z,21.43
2023-02-12T09:18:14.201Z,22.15
2023-02-12T09:20:45.648Z,21.53
2023-02-12T09:23:15.530Z,22.73
2023-02-12T09:25:46.850Z,21.77
2023-02-12T09:28:16.171Z,21.53
2023-02-12T09:30:44.830Z,22.55
2023-02-12T09:33:13.750Z,21.58
2023-02-12T09:35:41.880Z,21.83
2023-02-12T09:38:11.065Z,21.92
2023-02-12T09:41:00.451Z,21.07
2023-02-12T09:43:38.366Z,21.67
2023-02-12T09:46:16.535Z,22.93
2023-02-12T09:48:56.008Z,21.77
2023-02-12T09:51:24.289Z,22.35
2023-02-12T09:54:01.381Z,21.43
2023-02-12T09:56:31.734Z,21.95
2023-02-12T09:59:03.352Z,22.40
2023-02-12T10:01:32.007Z,23.35
2023-02-12T10:04:00.248Z,21.90
2023-02-12T10:06:31.409Z,23.33
2023-02-12T10:09:07.988Z,21.77
2023-02-12T10:11:52.404Z,22.15
2023-02-12T10:14:45.268Z,22.83
2023-02-12T10:17:19.892Z,23.67
2023-02-12T10:20:32.462Z,22.33
2023-02-12T10:23:12.389Z,19.90
2023-02-12T10:25:46.176Z,19.30
2023-02-12T10:28:20.979Z,19.70
2023-02-12T10:30:55.731Z,19.48
2023-02-12T10:33:29.183Z,19.97
2023-02-12T10:36:02.636Z,18.40
2023-02-12T10:38:35.164Z,18.77
2023-02-12T10:41:03.295Z,17.50
2023-02-12T10:43:33.494Z,18.92
2023-02-12T10:46:02.188Z,18.05
2023-02-12T10:48:36.314Z,17.02
2023-02-12T10:51:18.140Z,17.05
2023-02-12T10:53:48.433Z,14.65
2023-02-12T10:56:19.639Z,14.77
2023-02-12T10:58:59.458Z,14.82
2023-02-12T11:01:30.091Z,14.60
2023-02-12T11:04:01.916Z,13.63
2023-02-12T11:06:32.489Z,13.77
2023-02-12T11:09:01.664Z,13.33
2023-02-12T11:11:31.636Z,13.40
2023-02-12T11:14:05.048Z,13.63
2023-02-12T11:16:34.769Z,13.52
2023-02-12T11:19:06.325Z,12.93
2023-02-12T11:21:35.698Z,14.10
2023-02-12T11:24:32.231Z,15.93
2023-02-12T11:27:25.387Z,13.95
2023-02-12T11:30:18.133Z,16.77
2023-02-12T11:32:47.127Z,15.52
2023-02-12T11:35:24.117Z,16.15
2023-02-12T11:37:56.095Z,16.95
2023-02-12T11:40:26.249Z,16.55
2023-02-12T11:42:57.704Z,15.57
2023-02-12T11:45:32.305Z,15.48
2023-02-12T11:48:01.771Z,16.50
2023-02-12T11:50:32.128Z,18.10
2023-02-12T11:53:07.433Z,17.00
2023-02-12T11:55:39.121Z,16.05
2023-02-12T11:58:15.923Z,16.48
2023-02-12T12:00:50.689Z,16.87
2023-02-12T12:03:26.270Z,16.00
2023-02-12T12:05:58.501Z,16.85
2023-02-12T12:08:30.631Z,18.23
2023-02-12T12:11:05.195Z,16.48
2023-02-12T12:13:40.190Z,16.58
2023-02-12T12:16:46.080Z,16.27
2023-02-12T12:19:38.600Z,16.58
2023-02-12T12:22:19.908Z,15.02
2023-02-12T12:24:54.512Z,15.27
2023-02-12T12:27:47.248Z,15.82
2023-02-12T12:30:22.743Z,16.03
2023-02-12T12:32:56.747Z,16.27
2023-02-12T12:35:33.995Z,16.63
2023-02-12T12:38:08.267Z,16.00
2023-02-12T12:40:48.763Z,15.20
2023-02-12T12:43:26.686Z,15.70
2023-02-12T12:46:17.567Z,15.73
2023-02-12T12:49:08.715Z,16.60
2023-02-12T12:52:03.058Z,16.00
2023-02-12T12:54:47.023Z,14.57
2023-02-12T12:57:32.547Z,15.77
2023-02-12T13:00:25.192Z,15.40
2023-02-12T13:03:20.655Z,15.57
2023-02-12T13:06:13.689Z,16.27
2023-02-12T13:08:53.303Z,14.30
2023-02-12T13:11:34.391Z,16.15
2023-02-12T13:14:12.048Z,15.10
2023-02-12T13:16:47.758Z,15.50
2023-02-12T13:19:23.487Z,15.57
2023-02-12T13:22:01.926Z,14.95
2023-02-12T13:24:39.739Z,14.90
2023-02-12T13:27:13.519Z,16.05
2023-02-12T13:29:47.141Z,15.32
2023-02-12T13:32:21.232Z,15.30
2023-02-12T13:34:50.864Z,15.45
2023-02-12T13:37:26.140Z,14.73
2023-02-12T13:39:58.869Z,15.00
2023-02-12T13:42:44.212Z,14.65
2023-02-12T13:45:27.103Z,14.48
2023-02-12T13:48:06.518Z,15.57
2023-02-12T13:50:43.233Z,15.85
2023-02-12T13:53:23.822Z,16.40
2023-02-12T13:56:07.392Z,16.20
2023-02-12T13:58:53.362Z,14.38
2023-02-12T14:01:45.838Z,14.18
2023-02-12T14:04:34.648Z,16.58
2023-02-12T14:07:07.282Z,15.20
2023-02-12T14:09:40.630Z,15.95
2023-02-12T14:12:13.639Z,16.25
2023-02-12T14:14:44.959Z,14.85
2023-02-12T14:17:42.211Z,15.55
2023-02-12T14:20:25.886Z,14.77
2023-02-12T14:23:20.380Z,15.07
2023-02-12T14:25:57.976Z,15.57
2023-02-12T14:28:34.893Z,15.25
2023-02-12T14:31:42.457Z,15.43
2023-02-12T14:34:47.066Z,14.15
2023-02-12T14:37:35.298Z,15.05
2023-02-12T14:40:32.684Z,14.85
2023-02-12T14:43:04.223Z,13.90
2023-02-12T14:45:35.460Z,15.10
2023-02-12T14:48:05.107Z,16.40
2023-02-12T14:50:40.458Z,15.38
2023-02-12T14:53:24.191Z,23.30
2023-02-12T14:55:53.046Z,18.75
2023-02-12T14:58:26.067Z,19.63
2023-02-12T15:00:57.229Z,17.85
2023-02-12T15:03:31.957Z,18.52
2023-02-12T15:06:06.384Z,17.40
2023-02-12T15:08:42.977Z,18.70
2023-02-12T15:11:21.360Z,17.35
2023-02-12T15:13:57.165Z,17.88
2023-02-12T15:16:40.345Z,17.30
2023-02-12T15:19:21.785Z,18.08
2023-02-12T15:21:54.925Z,19.15
2023-02-12T15:24:24.861Z,18.08
2023-02-12T15:26:55.832Z,18.23
2023-02-12T15:29:29.441Z,17.63
2023-02-12T15:31:59.427Z,18.80
2023-02-12T15:34:32.011Z,17.42
2023-02-12T15:37:02.853Z,18.75
2023-02-12T15:39:39.513Z,19.02
2023-02-12T15:42:25.291Z,20.85
2023-02-12T15:45:18.495Z,20.85
2023-02-12T15:47:56.496Z,25.83
2023-02-12T15:50:24.725Z,26.48
2023-02-12T15:52:53.420Z,26.13
2023-02-12T15:55:25.899Z,26.13
2023-02-12T15:57:56.593Z,22.83
2023-02-12T16:00:32.174Z,21.23
2023-02-12T16:03:00.302Z,20.67
2023-02-12T16:05:29.391Z,19.57
2023-02-12T16:07:57.706Z,18.07
2023-02-12T16:10:27.719Z,17.45
2023-02-12T16:12:56.676Z,18.50
2023-02-12T16:15:28.951Z,17.93
2023-02-12T16:17:58.985Z,17.40
2023-02-12T16:20:28.811Z,17.52
2023-02-12T16:22:57.756Z,16.85
2023-02-12T16:25:28.096Z,18.03
2023-02-12T16:28:00.469Z,18.53
2023-02-12T16:30:32.998Z,18.00
2023-02-12T16:33:03.480Z,17.53
2023-02-12T16:35:34.454Z,19.20
2023-02-12T16:38:24.868Z,18.97
2023-02-12T16:41:23.997Z,19.97
2023-02-12T16:44:16.031Z,19.20
2023-02-12T16:46:50.421Z,19.43
2023-02-12T16:49:22.047Z,21.00
2023-02-12T16:51:52.118Z,19.53
2023-02-12T16:54:31.491Z,20.53
2023-02-12T16:57:00.681Z,19.90
2023-02-12T16:59:29.980Z,20.60
2023-02-12T17:02:01.845Z,22.23
2023-02-12T17:04:30.124Z,21.17
2023-02-12T17:06:58.757Z,21.53
2023-02-12T17:09:26.853Z,21.37
2023-02-12T17:11:58.056Z,21.97
2023-02-12T17:14:26.578Z,21.47
2023-02-12T17:16:54.746Z,22.60
2023-02-12T17:19:24.162Z,21.97
2023-02-12T17:21:52.862Z,23.23
2023-02-12T17:24:24.246Z,23.10
2023-02-12T17:26:53.212Z,23.93
2023-02-12T17:29:23.705Z,23.73
2023-02-12T17:31:53.720Z,23.10
2023-02-12T17:34:24.037Z,23.73
2023-02-12T17:36:52.794Z,22.30
2023-02-12T17:39:21.484Z,23.63
2023-02-12T17:41:50.508Z,24.37
2023-02-12T17:44:18.573Z,24.00
2023-02-12T17:46:46.709Z,25.63
2023-02-12T17:49:14.956Z,25.80
2023-02-12T17:51:44.884Z,25.70
2023-02-12T17:54:13.961Z,23.73
2023-02-12T17:56:42.226Z,26.10
2023-02-12T18:02:00.545Z,26.27
2023-02-12T18:04:28.692Z,26.10
2023-02-12T18:06:59.288Z,25.07
2023-02-12T18:09:27.375Z,25.77
2023-02-12T18:11:55.561Z,26.73
2023-02-12T18:14:24.329Z,26.33
2023-02-12T18:16:52.462Z,26.47
2023-02-12T18:19:20.668Z,27.50
2023-02-12T18:21:50.902Z,25.73
2023-02-12T18:24:20.890Z,27.13
2023-02-12T18:26:49.561Z,27.13
2023-02-12T18:29:19.900Z,27.73
2023-02-12T18:31:48.100Z,28.27
2023-02-12T18:34:17.819Z,29.30
2023-02-12T18:36:45.924Z,29.93
2023-02-12T18:39:14.133Z,32.00
2023-02-12T18:41:44.246Z,33.00
2023-02-12T18:44:12.411Z,33.03
2023-02-12T18:46:41.866Z,33.70
2023-02-12T18:49:10.180Z,30.80
2023-02-12T18:51:41.006Z,32.73
2023-02-12T18:54:11.677Z,30.97
2023-02-12T18:56:41.138Z,29.23
2023-02-12T18:59:14.247Z,28.33
2023-02-12T19:01:42.676Z,29.03
2023-02-12T19:04:12.910Z,29.03
2023-02-12T19:06:42.980Z,29.00
2023-02-12T19:09:13.946Z,26.47
2023-02-12T19:11:42.498Z,29.00
2023-02-12T19:14:12.617Z,28.40
2023-02-12T19:16:41.580Z,28.70
2023-02-12T19:19:09.909Z,27.93
2023-02-12T19:21:39.560Z,28.20
2023-02-12T19:24:08.421Z,27.23
2023-02-12T19:26:37.967Z,27.23
2023-02-12T19:29:06.848Z,27.50
2023-02-12T19:31:38.290Z,27.20
2023-02-12T19:34:08.968Z,27.47
2023-02-12T19:36:38.056Z,24.83
2023-02-12T19:39:07.432Z,26.20
2023-02-12T19:41:41.282Z,25.90
2023-02-12T19:44:13.221Z,26.47
2023-02-12T19:46:43.146Z,25.07
2023-02-12T19:49:17.801Z,23.47
2023-02-12T19:51:46.279Z,24.80
2023-02-12T19:54:16.425Z,25.10
2023-02-12T19:56:45.670Z,24.93
2023-02-12T19:59:17.165Z,25.03
2023-02-12T20:01:48.606Z,25.30
2023-02-12T20:04:20.237Z,27.87
2023-02-12T20:06:50.993Z,28.73
2023-02-12T20:09:20.373Z,28.00
2023-02-12T20:11:48.558Z,26.17
2023-02-12T20:14:17.497Z,26.40
2023-02-12T20:16:48.719Z,25.63
2023-02-12T20:19:20.824Z,24.40
2023-02-12T20:21:54.650Z,24.23
2023-02-12T20:24:23.337Z,24.50
2023-02-12T20:26:51.717Z,24.47
2023-02-12T20:29:19.939Z,24.97
2023-02-12T20:31:50.022Z,25.83
2023-02-12T20:34:20.601Z,24.33
2023-02-12T20:36:49.038Z,23.27
2023-02-12T20:39:19.014Z,24.87
2023-02-12T20:41:47.801Z,25.90
2023-02-12T20:44:19.989Z,25.97
2023-02-12T20:46:54.589Z,24.87
2023-02-12T20:49:24.985Z,26.33
2023-02-12T20:51:53.341Z,26.40
2023-02-12T20:54:21.485Z,24.67
2023-02-12T20:56:51.210Z,25.80
2023-02-12T20:59:20.744Z,24.93
2023-02-12T21:01:50.958Z,24.77
2023-02-12T21:04:20.797Z,22.07
2023-02-12T21:06:49.857Z,23.33
2023-02-12T21:09:18.992Z,22.97
2023-02-12T21:11:47.905Z,23.00
2023-02-12T21:14:24.776Z,24.30
2023-02-12T21:16:56.753Z,23.77
2023-02-12T21:19:26.264Z,24.07
2023-02-12T21:21:54.814Z,28.10
2023-02-12T21:24:25.332Z,29.20
2023-02-12T21:26:54.686Z,27.10
2023-02-12T21:29:23.261Z,27.30
2023-02-12T21:31:52.126Z,26.47
2023-02-12T21:34:23.126Z,28.83
2023-02-12T21:36:53.819Z,25.67
2023-02-12T21:39:26.222Z,25.07
2023-02-12T21:41:56.973Z,24.73
2023-02-12T21:44:26.107Z,24.43
2023-02-12T21:46:55.194Z,30.60
2023-02-12T21:49:29.010Z,33.27
2023-02-12T21:51:58.951Z,29.20
2023-02-12T21:54:27.659Z,29.90
2023-02-12T21:56:56.526Z,29.03
2023-02-12T21:59:26.351Z,28.47
2023-02-12T22:01:58.376Z,29.20
2023-02-12T22:04:28.554Z,26.27
2023-02-12T22:06:58.497Z,25.93
2023-02-12T22:09:26.605Z,25.93
2023-02-12T22:11:54.799Z,25.30
2023-02-12T22:14:23.355Z,24.63
2023-02-12T22:16:51.712Z,25.73
2023-02-12T22:19:20.356Z,26.20
2023-02-12T22:21:52.607Z,25.00
2023-02-12T22:24:21.158Z,25.97
2023-02-12T22:26:49.241Z,26.27
2023-02-12T22:29:17.997Z,25.20
2023-02-12T22:31:48.571Z,26.00
2023-02-12T22:34:19.181Z,25.97
2023-02-12T22:36:49.847Z,24.37
2023-02-12T22:39:18.617Z,24.50
2023-02-12T22:41:47.269Z,23.10
2023-02-12T22:44:16.482Z,23.83
2023-02-12T22:46:45.268Z,23.13
2023-02-12T22:49:13.952Z,22.77
2023-02-12T22:51:43.054Z,21.40
2023-02-12T22:54:15.514Z,20.70
2023-02-12T22:56:44.781Z,19.93
2023-02-12T22:59:13.716Z,19.13
2023-02-12T23:01:42.741Z,17.47
2023-02-12T23:04:16.593Z,16.90
2023-02-12T23:06:45.097Z,15.57
2023-02-12T23:09:19.435Z,15.73
2023-02-12T23:11:48.797Z,16.13
2023-02-12T23:14:17.254Z,14.33
2023-02-12T23:16:45.474Z,15.50
2023-02-12T23:19:14.068Z,14.27
2023-02-12T23:21:42.852Z,15.20
2023-02-12T23:24:15.364Z,14.33
2023-02-12T23:26:44.050Z,15.50
2023-02-12T23:29:12.255Z,15.47
2023-02-12T23:31:40.963Z,13.60
2023-02-12T23:34:09.180Z,13.73
2023-02-12T23:36:37.770Z,13.33
2023-02-12T23:39:06.268Z,13.30
2023-02-12T23:41:36.496Z,12.60
2023-02-12T23:44:04.937Z,12.43
2023-02-12T23:46:33.363Z,12.80
2023-02-12T23:49:01.434Z,11.57
2023-02-12T23:51:29.818Z,11.67
2023-02-12T23:53:58.371Z,11.13
2023-02-12T23:56:27.410Z,10.63
2023-02-12T23:58:58.320Z,9.80
